Potsdam, NY

2:04 AM EDT on October 01, 2016 (GMT -0400)
NonFedAWOS | | Change Station

Elev 473 ft 44.68 °N, 74.95 °W | Updated 26 minutes ago

Partly Cloudy
Partly Cloudy
54 °F
Feels Like 54 °F
N
3
Wind Variable Wind from NE
Gusts 0.0 mph

Today
High -- | Low -- °F
--% Chance of Precip.
Yesterday
High -- | Low -- °F
Precip. -- in
Pressure 30.34 in
Visibility 10.0 miles
Clouds Few 11000 ft
Dew Point 52 °F
Humidity 94%
Rainfall in
Snow Depth Not available.
6:58 AM 6:39 PM
New Moon, 0% visible
METAR KMSS 010553Z AUTO 06003KT 10SM FEW110 13/09 A3033 RMK AO2 SLP272 T01280089 10156 20122 58010
Pressure 30.34 in
Visibility 10.0 miles
Clouds Few 11000 ft
Dew Point 52 °F
Humidity 94%
Rainfall in
Snow Depth Not available.
6:58 AM 6:39 PM
New Moon, 0% visible
METAR KMSS 010553Z AUTO 06003KT 10SM FEW110 13/09 A3033 RMK AO2 SLP272 T01280089 10156 20122 58010

10-Day Weather Forecast

Almanac

Astronomy

Oct. 01, 2016 Rise Set
Actual Time
Civil Twilight
Nautical Twilight
Astronomical Twilight
Moon
Length of Visible Light
Length of Day
Tomorrow will be .
, % of the Moon is Illuminated

Today's Extremes

State Highs State Lows

Community

WunderPhotos

Upload Photos

1,942,898 photos uploaded!

WunderBlog® & News

Nearby

Air Quality

  Air Quality AQ Index Pollutant
Not available.

Snow Depth

Station Depth Elevation

Earthquake Activity

City Distance Mag. Time & Date
Minimum magnitude displayed is 2.5.

Coastal Water Temperatures

Place Temperature

Stations

Nearby Weather Stations

Station Location Temp. Windchill Dew Point Humidity Wind Precip. Elev Updated Type
                   

Watches & Warnings

There are currently no watches in effect.